sensor_id;sensor_type;location;lat;lon;timestamp;temperature;humidity
21092;DHT22;10704;42.678;23.288;2023-04-03T00:01:38;8.20;99.90
21092;DHT22;10704;42.678;23.288;2023-04-03T00:04:05;8.20;99.90
21092;DHT22;10704;42.678;23.288;2023-04-03T00:06:31;8.20;99.90
21092;DHT22;10704;42.678;23.288;2023-04-03T00:08:58;8.20;99.90
21092;DHT22;10704;42.678;23.288;2023-04-03T00:11:24;8.20;99.90
21092;DHT22;10704;42.678;23.288;2023-04-03T00:13:50;8.20;99.90
21092;DHT22;10704;42.678;23.288;2023-04-03T00:16:16;8.20;99.90
21092;DHT22;10704;42.678;23.288;2023-04-03T00:18:43;8.20;99.90
21092;DHT22;10704;42.678;23.288;2023-04-03T00:21:11;8.30;99.90
21092;DHT22;10704;42.678;23.288;2023-04-03T00:23:38;8.30;99.90
21092;DHT22;10704;42.678;23.288;2023-04-03T00:26:04;8.20;99.90
21092;DHT22;10704;42.678;23.288;2023-04-03T00:28:31;8.00;99.90
21092;DHT22;10704;42.678;23.288;2023-04-03T00:30:57;7.80;99.90
21092;DHT22;10704;42.678;23.288;2023-04-03T00:33:23;7.80;99.90
21092;DHT22;10704;42.678;23.288;2023-04-03T00:35:50;7.80;99.90
21092;DHT22;10704;42.678;23.288;2023-04-03T00:38:17;7.80;99.90
21092;DHT22;10704;42.678;23.288;2023-04-03T00:40:45;7.70;99.90
21092;DHT22;10704;42.678;23.288;2023-04-03T00:43:23;7.70;99.90
21092;DHT22;10704;42.678;23.288;2023-04-03T00:45:54;7.80;99.90
21092;DHT22;10704;42.678;23.288;2023-04-03T00:48:38;7.80;99.90
21092;DHT22;10704;42.678;23.288;2023-04-03T00:51:08;7.80;99.90
21092;DHT22;10704;42.678;23.288;2023-04-03T00:53:47;7.60;99.90
21092;DHT22;10704;42.678;23.288;2023-04-03T00:56:17;7.50;99.90
21092;DHT22;10704;42.678;23.288;2023-04-03T00:58:48;7.40;99.90
21092;DHT22;10704;42.678;23.288;2023-04-03T01:01:21;7.40;99.90
21092;DHT22;10704;42.678;23.288;2023-04-03T01:03:48;7.30;99.90
21092;DHT22;10704;42.678;23.288;2023-04-03T01:06:17;7.40;99.90
21092;DHT22;10704;42.678;23.288;2023-04-03T01:08:48;7.50;99.90
21092;DHT22;10704;42.678;23.288;2023-04-03T01:11:15;7.60;99.90
21092;DHT22;10704;42.678;23.288;2023-04-03T01:13:42;7.50;99.90
21092;DHT22;10704;42.678;23.288;2023-04-03T01:16:08;7.40;99.90
21092;DHT22;10704;42.678;23.288;2023-04-03T01:18:38;7.40;99.90
21092;DHT22;10704;42.678;23.288;2023-04-03T01:24:38;7.50;99.90
21092;DHT22;10704;42.678;23.288;2023-04-03T01:27:09;7.40;99.90
21092;DHT22;10704;42.678;23.288;2023-04-03T01:29:36;7.40;99.90
21092;DHT22;10704;42.678;23.288;2023-04-03T01:32:03;7.40;99.90
21092;DHT22;10704;42.678;23.288;2023-04-03T01:34:30;7.30;99.90
21092;DHT22;10704;42.678;23.288;2023-04-03T01:36:57;7.20;99.90
21092;DHT22;10704;42.678;23.288;2023-04-03T01:39:23;7.20;99.90
21092;DHT22;10704;42.678;23.288;2023-04-03T01:41:50;7.30;99.90
21092;DHT22;10704;42.678;23.288;2023-04-03T01:44:22;7.30;99.90
21092;DHT22;10704;42.678;23.288;2023-04-03T01:46:48;7.20;99.90
21092;DHT22;10704;42.678;23.288;2023-04-03T01:49:14;7.00;99.90
21092;DHT22;10704;42.678;23.288;2023-04-03T01:51:40;6.90;99.90
21092;DHT22;10704;42.678;23.288;2023-04-03T01:54:06;6.90;99.90
21092;DHT22;10704;42.678;23.288;2023-04-03T01:56:32;7.00;99.90
21092;DHT22;10704;42.678;23.288;2023-04-03T01:58:58;7.00;99.90
21092;DHT22;10704;42.678;23.288;2023-04-03T02:01:24;6.90;99.90
21092;DHT22;10704;42.678;23.288;2023-04-03T02:03:51;6.80;99.90
21092;DHT22;10704;42.678;23.288;2023-04-03T02:06:17;6.70;99.90
21092;DHT22;10704;42.678;23.288;2023-04-03T02:08:43;6.60;99.90
21092;DHT22;10704;42.678;23.288;2023-04-03T02:11:09;6.60;99.90
21092;DHT22;10704;42.678;23.288;2023-04-03T02:13:35;6.60;99.90
21092;DHT22;10704;42.678;23.288;2023-04-03T02:16:07;6.60;99.90
21092;DHT22;10704;42.678;23.288;2023-04-03T02:18:33;6.80;99.90
21092;DHT22;10704;42.678;23.288;2023-04-03T02:20:59;6.60;99.90
21092;DHT22;10704;42.678;23.288;2023-04-03T02:23:25;6.60;99.90
21092;DHT22;10704;42.678;23.288;2023-04-03T02:25:51;6.50;99.90
21092;DHT22;10704;42.678;23.288;2023-04-03T02:28:17;6.50;99.90
21092;DHT22;10704;42.678;23.288;2023-04-03T02:30:43;6.50;99.90
21092;DHT22;10704;42.678;23.288;2023-04-03T02:33:10;6.30;99.90
21092;DHT22;10704;42.678;23.288;2023-04-03T02:35:38;6.40;99.90
21092;DHT22;10704;42.678;23.288;2023-04-03T02:38:04;6.30;99.90
21092;DHT22;10704;42.678;23.288;2023-04-03T02:40:31;6.30;99.90
21092;DHT22;10704;42.678;23.288;2023-04-03T02:42:57;6.20;99.90
21092;DHT22;10704;42.678;23.288;2023-04-03T02:45:24;6.10;99.90
21092;DHT22;10704;42.678;23.288;2023-04-03T02:47:50;6.10;99.90
21092;DHT22;10704;42.678;23.288;2023-04-03T02:50:16;6.10;99.90
21092;DHT22;10704;42.678;23.288;2023-04-03T02:52:42;6.30;99.90
21092;DHT22;10704;42.678;23.288;2023-04-03T02:55:08;6.20;99.90
21092;DHT22;10704;42.678;23.288;2023-04-03T02:57:34;6.10;99.90
21092;DHT22;10704;42.678;23.288;2023-04-03T03:00:01;6.10;99.90
21092;DHT22;10704;42.678;23.288;2023-04-03T03:02:27;6.20;99.90
21092;DHT22;10704;42.678;23.288;2023-04-03T03:04:53;6.20;99.90
21092;DHT22;10704;42.678;23.288;2023-04-03T03:07:19;6.00;99.90
21092;DHT22;10704;42.678;23.288;2023-04-03T03:09:45;6.20;99.90
21092;DHT22;10704;42.678;23.288;2023-04-03T03:12:11;6.20;99.90
21092;DHT22;10704;42.678;23.288;2023-04-03T03:14:37;6.10;99.90
21092;DHT22;10704;42.678;23.288;2023-04-03T03:17:03;6.10;99.90
21092;DHT22;10704;42.678;23.288;2023-04-03T03:19:28;6.00;99.90
21092;DHT22;10704;42.678;23.288;2023-04-03T03:21:55;6.00;99.90
21092;DHT22;10704;42.678;23.288;2023-04-03T03:24:22;5.90;99.90
21092;DHT22;10704;42.678;23.288;2023-04-03T03:26:48;5.90;99.90
21092;DHT22;10704;42.678;23.288;2023-04-03T03:29:14;6.10;99.90
21092;DHT22;10704;42.678;23.288;2023-04-03T03:31:40;6.20;99.90
21092;DHT22;10704;42.678;23.288;2023-04-03T03:34:06;6.40;99.90
21092;DHT22;10704;42.678;23.288;2023-04-03T03:36:32;6.30;99.90
21092;DHT22;10704;42.678;23.288;2023-04-03T03:38:58;6.20;99.90
21092;DHT22;10704;42.678;23.288;2023-04-03T03:41:24;6.20;99.90
21092;DHT22;10704;42.678;23.288;2023-04-03T03:43:50;6.10;99.90
21092;DHT22;10704;42.678;23.288;2023-04-03T03:46:16;6.00;99.90
21092;DHT22;10704;42.678;23.288;2023-04-03T03:48:43;6.00;99.90
21092;DHT22;10704;42.678;23.288;2023-04-03T03:51:09;5.90;99.90
21092;DHT22;10704;42.678;23.288;2023-04-03T03:53:36;5.90;99.90
21092;DHT22;10704;42.678;23.288;2023-04-03T03:56:06;6.10;99.90
21092;DHT22;10704;42.678;23.288;2023-04-03T03:58:34;6.10;99.90
21092;DHT22;10704;42.678;23.288;2023-04-03T04:01:02;6.00;99.90
21092;DHT22;10704;42.678;23.288;2023-04-03T04:03:29;5.90;99.90
21092;DHT22;10704;42.678;23.288;2023-04-03T04:05:55;5.90;99.90
21092;DHT22;10704;42.678;23.288;2023-04-03T04:08:22;5.90;99.90
21092;DHT22;10704;42.678;23.288;2023-04-03T04:10:48;5.90;99.90
21092;DHT22;10704;42.678;23.288;2023-04-03T04:13:16;6.10;99.90
21092;DHT22;10704;42.678;23.288;2023-04-03T04:15:42;6.10;99.90
21092;DHT22;10704;42.678;23.288;2023-04-03T04:18:08;6.10;99.90
21092;DHT22;10704;42.678;23.288;2023-04-03T04:20:35;6.10;99.90
21092;DHT22;10704;42.678;23.288;2023-04-03T04:23:01;6.00;99.90
21092;DHT22;10704;42.678;23.288;2023-04-03T04:25:28;5.90;99.90
21092;DHT22;10704;42.678;23.288;2023-04-03T04:27:54;5.90;99.90
21092;DHT22;10704;42.678;23.288;2023-04-03T04:30:21;6.10;99.90
21092;DHT22;10704;42.678;23.288;2023-04-03T04:32:48;6.30;99.90
21092;DHT22;10704;42.678;23.288;2023-04-03T04:35:14;6.40;99.90
21092;DHT22;10704;42.678;23.288;2023-04-03T04:37:42;6.50;99.90
21092;DHT22;10704;42.678;23.288;2023-04-03T04:40:09;6.50;99.90
21092;DHT22;10704;42.678;23.288;2023-04-03T04:42:35;6.60;99.90
21092;DHT22;10704;42.678;23.288;2023-04-03T04:45:02;7.00;99.90
21092;DHT22;10704;42.678;23.288;2023-04-03T04:47:29;7.00;99.90
21092;DHT22;10704;42.678;23.288;2023-04-03T04:49:55;6.80;99.90
21092;DHT22;10704;42.678;23.288;2023-04-03T04:52:21;6.70;99.90
21092;DHT22;10704;42.678;23.288;2023-04-03T04:54:47;6.60;99.90
21092;DHT22;10704;42.678;23.288;2023-04-03T04:57:13;6.40;99.90
21092;DHT22;10704;42.678;23.288;2023-04-03T04:59:40;6.40;99.90
21092;DHT22;10704;42.678;23.288;2023-04-03T05:02:06;6.30;99.90
21092;DHT22;10704;42.678;23.288;2023-04-03T05:04:33;6.30;99.90
21092;DHT22;10704;42.678;23.288;2023-04-03T05:07:05;6.40;99.90
21092;DHT22;10704;42.678;23.288;2023-04-03T05:09:33;6.40;99.90
21092;DHT22;10704;42.678;23.288;2023-04-03T05:12:00;6.50;99.90
21092;DHT22;10704;42.678;23.288;2023-04-03T05:14:29;6.40;99.90
21092;DHT22;10704;42.678;23.288;2023-04-03T05:17:00;6.10;99.90
21092;DHT22;10704;42.678;23.288;2023-04-03T05:19:29;6.20;99.90
21092;DHT22;10704;42.678;23.288;2023-04-03T05:21:56;6.40;99.90
21092;DHT22;10704;42.678;23.288;2023-04-03T05:24:22;6.50;99.90
21092;DHT22;10704;42.678;23.288;2023-04-03T05:26:48;6.50;99.90
21092;DHT22;10704;42.678;23.288;2023-04-03T05:29:15;6.70;99.90
21092;DHT22;10704;42.678;23.288;2023-04-03T05:31:41;6.80;99.90
21092;DHT22;10704;42.678;23.288;2023-04-03T05:34:09;6.80;99.90
21092;DHT22;10704;42.678;23.288;2023-04-03T05:36:37;6.90;99.90
21092;DHT22;10704;42.678;23.288;2023-04-03T05:39:06;6.90;99.90
21092;DHT22;10704;42.678;23.288;2023-04-03T05:41:35;7.00;99.90
21092;DHT22;10704;42.678;23.288;2023-04-03T05:44:01;7.20;99.90
21092;DHT22;10704;42.678;23.288;2023-04-03T05:46:27;7.40;99.90
21092;DHT22;10704;42.678;23.288;2023-04-03T05:48:55;7.50;99.90
21092;DHT22;10704;42.678;23.288;2023-04-03T05:51:29;7.50;99.90
21092;DHT22;10704;42.678;23.288;2023-04-03T05:54:06;7.50;99.90
21092;DHT22;10704;42.678;23.288;2023-04-03T05:56:35;7.50;99.90
21092;DHT22;10704;42.678;23.288;2023-04-03T05:59:01;7.50;99.90
21092;DHT22;10704;42.678;23.288;2023-04-03T06:01:27;7.50;99.90
21092;DHT22;10704;42.678;23.288;2023-04-03T06:03:54;7.80;99.90
21092;DHT22;10704;42.678;23.288;2023-04-03T06:06:21;7.80;99.90
21092;DHT22;10704;42.678;23.288;2023-04-03T06:08:47;7.80;99.90
21092;DHT22;10704;42.678;23.288;2023-04-03T06:11:13;7.80;99.90
21092;DHT22;10704;42.678;23.288;2023-04-03T06:13:40;7.80;99.90
21092;DHT22;10704;42.678;23.288;2023-04-03T06:16:06;7.80;99.90
21092;DHT22;10704;42.678;23.288;2023-04-03T06:18:35;7.90;99.90
21092;DHT22;10704;42.678;23.288;2023-04-03T06:21:01;8.00;99.90
21092;DHT22;10704;42.678;23.288;2023-04-03T06:23:28;7.80;99.90
21092;DHT22;10704;42.678;23.288;2023-04-03T06:25:54;7.90;99.90
21092;DHT22;10704;42.678;23.288;2023-04-03T06:28:20;7.80;99.90
21092;DHT22;10704;42.678;23.288;2023-04-03T06:30:46;7.80;99.90
21092;DHT22;10704;42.678;23.288;2023-04-03T06:33:12;8.20;99.90
21092;DHT22;10704;42.678;23.288;2023-04-03T06:35:40;8.30;99.90
21092;DHT22;10704;42.678;23.288;2023-04-03T06:38:06;8.40;99.90
21092;DHT22;10704;42.678;23.288;2023-04-03T06:40:35;8.50;99.90
21092;DHT22;10704;42.678;23.288;2023-04-03T06:43:01;8.30;99.90
21092;DHT22;10704;42.678;23.288;2023-04-03T06:45:27;8.40;99.90
21092;DHT22;10704;42.678;23.288;2023-04-03T06:47:53;8.60;99.90
21092;DHT22;10704;42.678;23.288;2023-04-03T06:50:19;8.70;99.90
21092;DHT22;10704;42.678;23.288;2023-04-03T06:52:45;8.70;99.90
21092;DHT22;10704;42.678;23.288;2023-04-03T06:55:11;8.70;99.90
21092;DHT22;10704;42.678;23.288;2023-04-03T06:57:38;8.80;99.90
21092;DHT22;10704;42.678;23.288;2023-04-03T07:00:05;8.90;99.90
21092;DHT22;10704;42.678;23.288;2023-04-03T07:02:31;8.90;99.90
21092;DHT22;10704;42.678;23.288;2023-04-03T07:04:57;9.00;99.90
21092;DHT22;10704;42.678;23.288;2023-04-03T07:07:23;9.00;99.90
21092;DHT22;10704;42.678;23.288;2023-04-03T07:09:49;9.10;99.90
21092;DHT22;10704;42.678;23.288;2023-04-03T07:12:15;9.30;99.90
21092;DHT22;10704;42.678;23.288;2023-04-03T07:14:41;9.40;99.90
21092;DHT22;10704;42.678;23.288;2023-04-03T07:17:08;9.30;99.90
21092;DHT22;10704;42.678;23.288;2023-04-03T07:19:34;9.30;99.90
21092;DHT22;10704;42.678;23.288;2023-04-03T07:22:00;9.10;99.90
21092;DHT22;10704;42.678;23.288;2023-04-03T07:24:26;9.20;99.90
21092;DHT22;10704;42.678;23.288;2023-04-03T07:26:52;9.50;99.90
21092;DHT22;10704;42.678;23.288;2023-04-03T07:29:18;9.50;99.90
21092;DHT22;10704;42.678;23.288;2023-04-03T07:31:47;9.60;99.90
21092;DHT22;10704;42.678;23.288;2023-04-03T07:34:13;9.80;99.90
21092;DHT22;10704;42.678;23.288;2023-04-03T07:36:39;9.90;99.90
21092;DHT22;10704;42.678;23.288;2023-04-03T07:39:05;10.10;99.90
21092;DHT22;10704;42.678;23.288;2023-04-03T07:41:32;10.10;99.90
21092;DHT22;10704;42.678;23.288;2023-04-03T07:43:58;10.20;99.90
21092;DHT22;10704;42.678;23.288;2023-04-03T07:46:24;10.20;99.90
21092;DHT22;10704;42.678;23.288;2023-04-03T07:48:50;10.30;99.90
21092;DHT22;10704;42.678;23.288;2023-04-03T07:51:16;10.40;99.90
21092;DHT22;10704;42.678;23.288;2023-04-03T07:53:42;10.70;99.90
21092;DHT22;10704;42.678;23.288;2023-04-03T07:56:08;11.00;99.90
21092;DHT22;10704;42.678;23.288;2023-04-03T07:58:35;11.20;99.90
21092;DHT22;10704;42.678;23.288;2023-04-03T08:01:01;11.20;99.90
21092;DHT22;10704;42.678;23.288;2023-04-03T08:03:27;11.30;99.90
21092;DHT22;10704;42.678;23.288;2023-04-03T08:05:53;11.20;99.90
21092;DHT22;10704;42.678;23.288;2023-04-03T08:08:22;11.30;99.90
21092;DHT22;10704;42.678;23.288;2023-04-03T08:10:52;11.30;99.90
21092;DHT22;10704;42.678;23.288;2023-04-03T08:13:19;11.30;99.90
21092;DHT22;10704;42.678;23.288;2023-04-03T08:15:45;11.40;99.90
21092;DHT22;10704;42.678;23.288;2023-04-03T08:18:13;11.50;99.90
21092;DHT22;10704;42.678;23.288;2023-04-03T08:20:39;11.60;99.90
21092;DHT22;10704;42.678;23.288;2023-04-03T08:23:06;11.50;99.90
21092;DHT22;10704;42.678;23.288;2023-04-03T08:25:34;11.60;99.90
21092;DHT22;10704;42.678;23.288;2023-04-03T08:28:00;11.50;99.90
21092;DHT22;10704;42.678;23.288;2023-04-03T08:30:27;11.50;99.90
21092;DHT22;10704;42.678;23.288;2023-04-03T08:32:53;11.80;99.90
21092;DHT22;10704;42.678;23.288;2023-04-03T08:35:19;12.40;99.90
21092;DHT22;10704;42.678;23.288;2023-04-03T08:37:46;12.50;99.90
21092;DHT22;10704;42.678;23.288;2023-04-03T08:40:16;12.50;99.90
21092;DHT22;10704;42.678;23.288;2023-04-03T08:45:45;12.60;99.90
21092;DHT22;10704;42.678;23.288;2023-04-03T08:48:15;13.00;99.90
21092;DHT22;10704;42.678;23.288;2023-04-03T08:50:51;12.80;99.90
21092;DHT22;10704;42.678;23.288;2023-04-03T08:53:21;12.70;99.90
21092;DHT22;10704;42.678;23.288;2023-04-03T08:55:52;12.70;99.90
21092;DHT22;10704;42.678;23.288;2023-04-03T08:58:24;12.50;99.90
21092;DHT22;10704;42.678;23.288;2023-04-03T09:01:05;12.70;99.90
21092;DHT22;10704;42.678;23.288;2023-04-03T09:03:38;13.00;99.90
21092;DHT22;10704;42.678;23.288;2023-04-03T09:06:31;13.20;99.90
21092;DHT22;10704;42.678;23.288;2023-04-03T09:14:35;13.30;99.90
21092;DHT22;10704;42.678;23.288;2023-04-03T09:19:54;13.30;99.90
21092;DHT22;10704;42.678;23.288;2023-04-03T09:22:28;13.40;99.90
21092;DHT22;10704;42.678;23.288;2023-04-03T09:25:13;13.60;99.90
21092;DHT22;10704;42.678;23.288;2023-04-03T09:27:39;13.70;99.90
21092;DHT22;10704;42.678;23.288;2023-04-03T09:30:06;13.70;99.90
21092;DHT22;10704;42.678;23.288;2023-04-03T09:32:38;13.80;99.90
21092;DHT22;10704;42.678;23.288;2023-04-03T09:35:22;13.80;99.90
21092;DHT22;10704;42.678;23.288;2023-04-03T09:37:52;14.00;99.90
21092;DHT22;10704;42.678;23.288;2023-04-03T09:40:37;14.10;98.40
21092;DHT22;10704;42.678;23.288;2023-04-03T09:43:25;14.30;97.60
21092;DHT22;10704;42.678;23.288;2023-04-03T09:45:52;14.60;96.30
21092;DHT22;10704;42.678;23.288;2023-04-03T09:48:22;14.60;94.90
21092;DHT22;10704;42.678;23.288;2023-04-03T09:50:56;14.80;94.70
21092;DHT22;10704;42.678;23.288;2023-04-03T09:53:44;15.00;93.50
21092;DHT22;10704;42.678;23.288;2023-04-03T09:58:45;14.50;92.70
21092;DHT22;10704;42.678;23.288;2023-04-03T10:04:11;14.60;93.00
21092;DHT22;10704;42.678;23.288;2023-04-03T10:06:45;14.70;92.20
21092;DHT22;10704;42.678;23.288;2023-04-03T10:12:04;14.60;92.60
21092;DHT22;10704;42.678;23.288;2023-04-03T10:15:17;14.50;92.30
21092;DHT22;10704;42.678;23.288;2023-04-03T10:17:31;14.40;92.30
21092;DHT22;10704;42.678;23.288;2023-04-03T10:20:22;14.10;92.70
21092;DHT22;10704;42.678;23.288;2023-04-03T10:34:44;13.30;95.40
21092;DHT22;10704;42.678;23.288;2023-04-03T10:37:27;13.40;95.50
21092;DHT22;10704;42.678;23.288;2023-04-03T10:41:02;13.50;95.60
21092;DHT22;10704;42.678;23.288;2023-04-03T10:43:06;13.40;95.70
21092;DHT22;10704;42.678;23.288;2023-04-03T10:45:56;13.50;95.90
21092;DHT22;10704;42.678;23.288;2023-04-03T10:48:40;13.70;95.80
21092;DHT22;10704;42.678;23.288;2023-04-03T10:51:16;13.70;96.30
21092;DHT22;10704;42.678;23.288;2023-04-03T10:53:56;13.60;96.30
21092;DHT22;10704;42.678;23.288;2023-04-03T10:56:41;13.50;97.00
21092;DHT22;10704;42.678;23.288;2023-04-03T10:59:35;13.30;97.10
21092;DHT22;10704;42.678;23.288;2023-04-03T11:02:37;13.30;97.50
21092;DHT22;10704;42.678;23.288;2023-04-03T11:07:47;13.10;99.80
21092;DHT22;10704;42.678;23.288;2023-04-03T11:10:19;13.00;99.90
21092;DHT22;10704;42.678;23.288;2023-04-03T11:15:33;12.60;99.90
21092;DHT22;10704;42.678;23.288;2023-04-03T11:18:21;12.40;99.90
21092;DHT22;10704;42.678;23.288;2023-04-03T11:23:39;11.80;99.90
21092;DHT22;10704;42.678;23.288;2023-04-03T11:26:12;11.50;99.90
21092;DHT22;10704;42.678;23.288;2023-04-03T11:28:38;11.50;99.90
21092;DHT22;10704;42.678;23.288;2023-04-03T11:34:08;11.30;99.90
21092;DHT22;10704;42.678;23.288;2023-04-03T11:36:58;11.40;99.90
21092;DHT22;10704;42.678;23.288;2023-04-03T11:39:29;11.20;99.90
21092;DHT22;10704;42.678;23.288;2023-04-03T11:42:39;10.90;99.90
21092;DHT22;10704;42.678;23.288;2023-04-03T11:47:58;10.90;99.90
21092;DHT22;10704;42.678;23.288;2023-04-03T11:50:39;11.00;99.90
21092;DHT22;10704;42.678;23.288;2023-04-03T12:19:00;9.90;99.90
21092;DHT22;10704;42.678;23.288;2023-04-03T12:27:04;9.60;99.90
21092;DHT22;10704;42.678;23.288;2023-04-03T12:32:26;9.40;99.90
21092;DHT22;10704;42.678;23.288;2023-04-03T12:35:29;9.40;99.90
21092;DHT22;10704;42.678;23.288;2023-04-03T12:46:39;9.40;99.90
21092;DHT22;10704;42.678;23.288;2023-04-03T12:49:33;9.30;99.90
21092;DHT22;10704;42.678;23.288;2023-04-03T12:52:04;9.40;99.90
21092;DHT22;10704;42.678;23.288;2023-04-03T12:54:38;9.30;99.90
21092;DHT22;10704;42.678;23.288;2023-04-03T12:57:26;9.20;99.90
21092;DHT22;10704;42.678;23.288;2023-04-03T12:59:53;9.10;99.90
21092;DHT22;10704;42.678;23.288;2023-04-03T13:04:57;9.10;99.90
21092;DHT22;10704;42.678;23.288;2023-04-03T13:07:32;9.00;99.90
21092;DHT22;10704;42.678;23.288;2023-04-03T13:10:12;8.90;99.90
21092;DHT22;10704;42.678;23.288;2023-04-03T13:12:55;8.90;99.90
21092;DHT22;10704;42.678;23.288;2023-04-03T13:15:29;8.90;99.90
21092;DHT22;10704;42.678;23.288;2023-04-03T13:17:56;8.80;99.90
21092;DHT22;10704;42.678;23.288;2023-04-03T13:20:29;8.80;99.90
21092;DHT22;10704;42.678;23.288;2023-04-03T13:23:05;8.70;99.90
21092;DHT22;10704;42.678;23.288;2023-04-03T13:25:36;8.70;99.90
21092;DHT22;10704;42.678;23.288;2023-04-03T13:28:05;8.70;99.90
21092;DHT22;10704;42.678;23.288;2023-04-03T13:30:35;8.70;99.90
21092;DHT22;10704;42.678;23.288;2023-04-03T13:33:19;8.70;99.90
21092;DHT22;10704;42.678;23.288;2023-04-03T13:35:46;8.60;99.90
21092;DHT22;10704;42.678;23.288;2023-04-03T13:40:53;8.60;99.90
21092;DHT22;10704;42.678;23.288;2023-04-03T13:43:23;8.50;99.90
21092;DHT22;10704;42.678;23.288;2023-04-03T13:46:03;8.50;99.90
21092;DHT22;10704;42.678;23.288;2023-04-03T13:53:58;8.40;99.90
21092;DHT22;10704;42.678;23.288;2023-04-03T13:59:03;8.50;99.90
21092;DHT22;10704;42.678;23.288;2023-04-03T14:04:54;8.30;99.90
21092;DHT22;10704;42.678;23.288;2023-04-03T14:07:18;8.20;99.90
21092;DHT22;10704;42.678;23.288;2023-04-03T14:09:46;8.20;99.90
21092;DHT22;10704;42.678;23.288;2023-04-03T14:12:18;8.20;99.90
21092;DHT22;10704;42.678;23.288;2023-04-03T14:14:46;8.20;99.90
21092;DHT22;10704;42.678;23.288;2023-04-03T14:17:19;8.20;99.90
21092;DHT22;10704;42.678;23.288;2023-04-03T14:19:47;8.20;99.90
21092;DHT22;10704;42.678;23.288;2023-04-03T14:22:23;8.20;99.90
21092;DHT22;10704;42.678;23.288;2023-04-03T14:24:50;8.10;99.90
21092;DHT22;10704;42.678;23.288;2023-04-03T14:27:24;8.10;99.90
21092;DHT22;10704;42.678;23.288;2023-04-03T14:29:51;8.00;99.90
21092;DHT22;10704;42.678;23.288;2023-04-03T14:32:19;8.00;99.90
21092;DHT22;10704;42.678;23.288;2023-04-03T14:34:46;8.00;99.90
21092;DHT22;10704;42.678;23.288;2023-04-03T14:37:15;8.00;99.90
21092;DHT22;10704;42.678;23.288;2023-04-03T14:39:42;8.00;99.90
21092;DHT22;10704;42.678;23.288;2023-04-03T14:42:13;8.00;99.90
21092;DHT22;10704;42.678;23.288;2023-04-03T14:44:41;7.90;99.90
21092;DHT22;10704;42.678;23.288;2023-04-03T14:47:15;7.90;99.90
21092;DHT22;10704;42.678;23.288;2023-04-03T14:49:42;7.90;99.90
21092;DHT22;10704;42.678;23.288;2023-04-03T14:52:33;7.90;99.90
21092;DHT22;10704;42.678;23.288;2023-04-03T14:55:00;7.90;99.90
21092;DHT22;10704;42.678;23.288;2023-04-03T14:57:28;7.90;99.90
21092;DHT22;10704;42.678;23.288;2023-04-03T14:59:55;7.90;99.90
21092;DHT22;10704;42.678;23.288;2023-04-03T15:02:29;7.80;99.90
21092;DHT22;10704;42.678;23.288;2023-04-03T15:04:56;7.80;99.90
21092;DHT22;10704;42.678;23.288;2023-04-03T15:07:24;7.80;99.90
21092;DHT22;10704;42.678;23.288;2023-04-03T15:09:51;7.80;99.90
21092;DHT22;10704;42.678;23.288;2023-04-03T15:12:17;7.80;99.90
21092;DHT22;10704;42.678;23.288;2023-04-03T15:14:43;7.80;99.90
21092;DHT22;10704;42.678;23.288;2023-04-03T15:17:18;7.80;99.90
21092;DHT22;10704;42.678;23.288;2023-04-03T15:19:45;7.90;99.90
21092;DHT22;10704;42.678;23.288;2023-04-03T15:22:17;7.90;99.90
21092;DHT22;10704;42.678;23.288;2023-04-03T15:24:43;7.90;99.90
21092;DHT22;10704;42.678;23.288;2023-04-03T15:27:11;7.90;99.90
21092;DHT22;10704;42.678;23.288;2023-04-03T15:29:39;7.80;99.90
21092;DHT22;10704;42.678;23.288;2023-04-03T15:32:05;7.80;99.90
21092;DHT22;10704;42.678;23.288;2023-04-03T15:34:32;7.80;99.90
21092;DHT22;10704;42.678;23.288;2023-04-03T15:36:58;7.80;99.90
21092;DHT22;10704;42.678;23.288;2023-04-03T15:39:25;7.70;99.90
21092;DHT22;10704;42.678;23.288;2023-04-03T15:41:51;7.80;99.90
21092;DHT22;10704;42.678;23.288;2023-04-03T15:44:20;8.00;99.90
21092;DHT22;10704;42.678;23.288;2023-04-03T15:46:47;7.90;99.90
21092;DHT22;10704;42.678;23.288;2023-04-03T15:49:14;7.90;99.90
21092;DHT22;10704;42.678;23.288;2023-04-03T15:51:40;8.00;99.90
21092;DHT22;10704;42.678;23.288;2023-04-03T15:54:06;8.00;99.90
21092;DHT22;10704;42.678;23.288;2023-04-03T15:56:32;8.00;99.90
21092;DHT22;10704;42.678;23.288;2023-04-03T15:58:58;8.10;99.90
21092;DHT22;10704;42.678;23.288;2023-04-03T16:01:24;8.00;99.90
21092;DHT22;10704;42.678;23.288;2023-04-03T16:03:50;7.90;99.90
21092;DHT22;10704;42.678;23.288;2023-04-03T16:06:18;8.00;99.90
21092;DHT22;10704;42.678;23.288;2023-04-03T16:08:47;8.00;99.90
21092;DHT22;10704;42.678;23.288;2023-04-03T16:11:14;8.00;99.90
21092;DHT22;10704;42.678;23.288;2023-04-03T16:13:40;8.00;99.90
21092;DHT22;10704;42.678;23.288;2023-04-03T16:16:08;8.00;99.90
21092;DHT22;10704;42.678;23.288;2023-04-03T16:18:35;8.10;99.90
21092;DHT22;10704;42.678;23.288;2023-04-03T16:21:01;8.00;99.90
21092;DHT22;10704;42.678;23.288;2023-04-03T16:23:27;7.90;99.90
21092;DHT22;10704;42.678;23.288;2023-04-03T16:25:53;7.90;99.90
21092;DHT22;10704;42.678;23.288;2023-04-03T16:28:19;8.00;99.90
21092;DHT22;10704;42.678;23.288;2023-04-03T16:30:45;7.90;99.90
21092;DHT22;10704;42.678;23.288;2023-04-03T16:33:13;7.80;99.90
21092;DHT22;10704;42.678;23.288;2023-04-03T16:35:39;7.70;99.90
21092;DHT22;10704;42.678;23.288;2023-04-03T16:38:07;7.70;99.90
21092;DHT22;10704;42.678;23.288;2023-04-03T16:40:33;7.70;99.90
21092;DHT22;10704;42.678;23.288;2023-04-03T16:43:01;7.70;99.90
21092;DHT22;10704;42.678;23.288;2023-04-03T16:45:27;7.70;99.90
21092;DHT22;10704;42.678;23.288;2023-04-03T16:47:53;7.70;99.90
21092;DHT22;10704;42.678;23.288;2023-04-03T16:50:18;7.80;99.90
21092;DHT22;10704;42.678;23.288;2023-04-03T16:52:47;7.70;99.90
21092;DHT22;10704;42.678;23.288;2023-04-03T16:55:13;7.70;99.90
21092;DHT22;10704;42.678;23.288;2023-04-03T16:57:39;7.60;99.90
21092;DHT22;10704;42.678;23.288;2023-04-03T17:00:06;7.60;99.90
21092;DHT22;10704;42.678;23.288;2023-04-03T17:02:33;7.50;99.90
21092;DHT22;10704;42.678;23.288;2023-04-03T17:04:58;7.50;99.90
21092;DHT22;10704;42.678;23.288;2023-04-03T17:07:25;7.50;99.90
21092;DHT22;10704;42.678;23.288;2023-04-03T17:09:51;7.50;99.90
21092;DHT22;10704;42.678;23.288;2023-04-03T17:12:19;7.40;99.90
21092;DHT22;10704;42.678;23.288;2023-04-03T17:14:45;7.40;99.90
21092;DHT22;10704;42.678;23.288;2023-04-03T17:17:13;7.40;99.90
21092;DHT22;10704;42.678;23.288;2023-04-03T17:19:41;7.30;99.90
21092;DHT22;10704;42.678;23.288;2023-04-03T17:22:08;7.30;99.90
21092;DHT22;10704;42.678;23.288;2023-04-03T17:24:35;7.30;99.90
21092;DHT22;10704;42.678;23.288;2023-04-03T17:27:02;7.30;99.90
21092;DHT22;10704;42.678;23.288;2023-04-03T17:29:28;7.30;99.90